METAR Data
IDs: Format: Raw Decoded Include TAF

Data at: 1707 UTC 03 Dec 2021

KTTD 031653Z 00000KT 5SM BR OVC003 04/02 A3028 RMK AO2 SLP252 T00390022
KTTD 031607Z 00000KT 8SM OVC004 04/02 A3028 RMK AO2 T00390017
KTTD 031553Z 08003KT 10SM OVC005 03/02 A3028 RMK AO2 SLP253 T00330017
KTTD 031453Z 00000KT 10SM OVC005 03/02 A3029 RMK AO2 SLP256 T00330017 58005
KTTD 031434Z AUTO 00000KT 6SM BR OVC006 03/02 A3029 RMK AO2 T00280017
KTTD 031427Z AUTO 00000KT 2SM BR OVC006 03/02 A3030 RMK AO2 T00280017
KTTD 031412Z AUTO 00000KT 1/4SM FG FEW001 OVC005 02/01 A3030 RMK AO2 T00220011
KTTD 031358Z AUTO 00000KT 3/4SM BR OVC002 02/01 A3030 RMK AO2 T00220006
KTTD 031356Z AUTO 00000KT 1 1/2SM BR OVC002 02/01 A3030 RMK AO2 T00220006
KTTD 031353Z AUTO 00000KT 4SM BR OVC002 03/01 A3030 RMK AO2 SLP260 T00280006
KTTD 031345Z AUTO 00000KT 10SM BKN002 OVC007 02/00 A3030 RMK AO2 CIG 001V005 T00170000
KTTD 031324Z AUTO 00000KT 10SM BKN007 03/00 A3030 RMK AO2 T00280000
KTTD 031315Z AUTO 00000KT 10SM SCT007 02/M01 A3031 RMK AO2 T00171006
KTTD 031253Z AUTO 00000KT 10SM CLR 02/00 A3031 RMK AO2 SLP262 T00170000
KTTD 031153Z AUTO 00000KT 10SM CLR 02/M01 A3030 RMK AO2 SLP261 T00221006 10078 20022 56008
KTTD 031053Z AUTO 00000KT 10SM CLR 03/01 A3031 RMK AO2 SLP263 T00330006
KTTD 030953Z AUTO 00000KT 10SM CLR 04/01 A3031 RMK AO2 SLP264 T00440011
KTTD 030853Z AUTO 00000KT 10SM CLR 07/02 A3033 RMK AO2 SLP269 T00670017 58004
KTTD 030753Z AUTO 00000KT 10SM CLR 07/02 A3034 RMK AO2 SLP272 T00670022 401330067
KTTD 030653Z AUTO 28004KT 10SM CLR 07/03 A3034 RMK AO2 SLP272 T00720028
KTTD 030553Z AUTO 28003KT 10SM CLR 08/03 A3034 RMK AO2 SLP272 T00780033 10111 20072 55002
KTTD 030453Z AUTO 27003KT 10SM CLR 08/03 A3034 RMK AO2 SLP272 T00780033
KTTD 030353Z AUTO 26003KT 10SM CLR 08/03 A3034 RMK AO2 SLP272 T00830033
KTTD 030253Z AUTO 27004KT 10SM SCT050 09/03 A3034 RMK AO2 SLP274 T00890033 53009
KTTD 030153Z AUTO 31004KT 10SM SCT055 10/03 A3032 RMK AO2 SLP267 T01000028
KTTD 030053Z AUTO 31005KT 10SM OVC050 11/03 A3032 RMK AO2 SLP267 T01110028
KTTD 022353Z AUTO 30003KT 10SM OVC049 11/02 A3032 RMK AO2 SLP265 T01110022 10128 20111 53001
KTTD 022253Z VRB03KT 10SM BKN043 OVC055 12/02 A3031 RMK AO2 SLP264 T01170017
KTTD 022153Z VRB04KT 10SM BKN045 OVC055 12/03 A3031 RMK AO2 SLP264 T01220028
KTTD 022053Z 31006KT 10SM FEW029 SCT034 OVC042 12/04 A3031 RMK AO2 SLP264 T01220039 53000
KTTD 022048Z 30006KT 10SM SCT029 OVC037 12/04 A3031 RMK AO2
KTTD 022030Z VRB04KT 10SM BKN029 BKN040 OVC050 13/05 A3031 RMK AO2 T01280050
KTTD 021953Z VRB05KT 10SM FEW025 SCT040 OVC050 12/06 A3031 RMK AO2 SLP263 T01220056
KTTD 021853Z 25005KT 10SM FEW026 OVC050 12/07 A3031 RMK AO2 SLP264 T01220067
KTTD 021753Z 26004KT 10SM OVC049 12/07 A3031 RMK AO2 SLP263 T01170067 10122 20106 53021
KTTD 021653Z 25003KT 10SM BKN049 11/07 A3028 RMK AO2 SLP254 T01060067
KTTD 021553Z VRB04KT 10SM OVC040 12/06 A3027 RMK AO2 SLP249 T01170061
KTTD 021453Z 00000KT 10SM BKN033 OVC046 12/07 A3025 RMK AO2 SLP242 T01170072 53013
KTTD 021353Z AUTO VRB03KT 10SM FEW016 SCT035 BKN044 12/09 A3022 RMK AO2 SLP234 T01220089
KTTD 021301Z AUTO 25003KT 10SM FEW014 FEW020 OVC031 12/09 A3022 RMK AO2 T01220094
KTTD 021253Z AUTO 00000KT 10SM SCT014 BKN021 OVC031 12/09 A3023 RMK AO2 SLP235 T01220094
KTTD 021245Z AUTO 27003KT 10SM BKN014 BKN021 OVC031 12/09 A3023 RMK AO2 T01220094
KTTD 021153Z AUTO 00000KT 10SM BKN024 BKN030 OVC055 12/09 A3021 RMK AO2 SLP230 T01220094 10133 20122 52000
KTTD 021115Z AUTO 00000KT 10SM BKN024 OVC037 12/09 A3021 RMK AO2 T01220094
KTTD 021100Z AUTO 00000KT 10SM SCT022 BKN037 OVC045 12/09 A3021 RMK AO2 T01220094
KTTD 021053Z AUTO 00000KT 10SM BKN022 OVC033 12/09 A3021 RMK AO2 SLP230 T01220094
KTTD 021041Z AUTO 00000KT 10SM BKN023 OVC036 12/09 A3021 RMK AO2 T01220094
KTTD 020953Z AUTO 00000KT 10SM BKN041 OVC050 13/09 A3021 RMK AO2 SLP229 T01280094
KTTD 020853Z AUTO 23004KT 10SM SCT043 OVC110 13/09 A3021 RMK AO2 SLP229 T01280094 50012
KTTD 020753Z AUTO 27004KT 10SM OVC031 13/09 A3021 RMK AO2 SLP230 T01330094 401830078
KTTD 020653Z AUTO 29004KT 10SM FEW030 OVC095 13/09 A3019 RMK AO2 SLP222 T01330094
KTTD 020553Z AUTO 27005KT 10SM OVC100 13/10 A3017 RMK AO2 SLP218 T01330100 10172 20122 53012